sensor_id;sensor_type;location;lat;lon;timestamp;P1;durP1;ratioP1;P2;durP2;ratioP2
22201;SDS011;11266;51.522;6.302;2023-05-28T00:00:41;7.80;;;3.42;;
22201;SDS011;11266;51.522;6.302;2023-05-28T00:01:29;7.32;;;3.50;;
22201;SDS011;11266;51.522;6.302;2023-05-28T00:02:15;5.30;;;3.13;;
22201;SDS011;11266;51.522;6.302;2023-05-28T00:03:00;10.55;;;3.70;;
22201;SDS011;11266;51.522;6.302;2023-05-28T00:03:46;9.48;;;3.35;;
22201;SDS011;11266;51.522;6.302;2023-05-28T00:04:32;5.55;;;2.95;;
22201;SDS011;11266;51.522;6.302;2023-05-28T00:05:18;7.88;;;3.45;;
22201;SDS011;11266;51.522;6.302;2023-05-28T00:06:04;6.28;;;3.00;;
22201;SDS011;11266;51.522;6.302;2023-05-28T00:06:50;7.63;;;3.17;;
22201;SDS011;11266;51.522;6.302;2023-05-28T00:07:38;7.88;;;3.28;;
22201;SDS011;11266;51.522;6.302;2023-05-28T00:08:24;7.40;;;2.80;;
22201;SDS011;11266;51.522;6.302;2023-05-28T00:09:10;6.50;;;3.15;;
22201;SDS011;11266;51.522;6.302;2023-05-28T00:09:57;6.20;;;2.97;;
22201;SDS011;11266;51.522;6.302;2023-05-28T00:10:43;8.50;;;2.75;;
22201;SDS011;11266;51.522;6.302;2023-05-28T00:11:29;7.50;;;3.58;;
22201;SDS011;11266;51.522;6.302;2023-05-28T00:12:15;7.47;;;3.03;;
22201;SDS011;11266;51.522;6.302;2023-05-28T00:13:01;7.53;;;3.28;;
22201;SDS011;11266;51.522;6.302;2023-05-28T00:13:46;8.35;;;3.75;;
22201;SDS011;11266;51.522;6.302;2023-05-28T00:14:33;6.93;;;3.00;;
22201;SDS011;11266;51.522;6.302;2023-05-28T00:15:19;7.63;;;3.22;;
22201;SDS011;11266;51.522;6.302;2023-05-28T00:16:05;7.75;;;3.70;;
22201;SDS011;11266;51.522;6.302;2023-05-28T00:16:51;4.85;;;2.70;;
22201;SDS011;11266;51.522;6.302;2023-05-28T00:17:37;7.47;;;2.83;;
22201;SDS011;11266;51.522;6.302;2023-05-28T00:18:23;5.28;;;2.95;;
22201;SDS011;11266;51.522;6.302;2023-05-28T00:19:09;6.78;;;3.05;;
22201;SDS011;11266;51.522;6.302;2023-05-28T00:19:55;6.97;;;3.03;;
22201;SDS011;11266;51.522;6.302;2023-05-28T00:20:40;6.40;;;2.80;;
22201;SDS011;11266;51.522;6.302;2023-05-28T00:21:26;5.20;;;2.75;;
22201;SDS011;11266;51.522;6.302;2023-05-28T00:22:12;6.00;;;2.97;;
22201;SDS011;11266;51.522;6.302;2023-05-28T00:22:58;6.63;;;2.90;;
22201;SDS011;11266;51.522;6.302;2023-05-28T00:23:43;6.07;;;3.03;;
22201;SDS011;11266;51.522;6.302;2023-05-28T00:24:29;6.00;;;2.80;;
22201;SDS011;11266;51.522;6.302;2023-05-28T00:25:15;5.70;;;2.80;;
22201;SDS011;11266;51.522;6.302;2023-05-28T00:26:01;7.82;;;3.00;;
22201;SDS011;11266;51.522;6.302;2023-05-28T00:26:47;5.60;;;2.75;;
22201;SDS011;11266;51.522;6.302;2023-05-28T00:27:32;7.32;;;2.88;;
22201;SDS011;11266;51.522;6.302;2023-05-28T00:28:18;6.22;;;2.72;;
22201;SDS011;11266;51.522;6.302;2023-05-28T00:29:04;7.13;;;3.25;;
22201;SDS011;11266;51.522;6.302;2023-05-28T00:29:50;7.70;;;3.03;;
22201;SDS011;11266;51.522;6.302;2023-05-28T00:30:36;7.50;;;3.28;;
22201;SDS011;11266;51.522;6.302;2023-05-28T00:31:21;7.72;;;2.88;;
22201;SDS011;11266;51.522;6.302;2023-05-28T00:32:07;5.30;;;2.90;;
22201;SDS011;11266;51.522;6.302;2023-05-28T00:32:53;6.45;;;3.20;;
22201;SDS011;11266;51.522;6.302;2023-05-28T00:33:39;6.45;;;2.78;;
22201;SDS011;11266;51.522;6.302;2023-05-28T00:34:25;6.78;;;3.10;;
22201;SDS011;11266;51.522;6.302;2023-05-28T00:35:11;6.40;;;3.00;;
22201;SDS011;11266;51.522;6.302;2023-05-28T00:35:57;5.18;;;2.55;;
22201;SDS011;11266;51.522;6.302;2023-05-28T00:36:43;7.47;;;3.10;;
22201;SDS011;11266;51.522;6.302;2023-05-28T00:37:28;6.93;;;2.65;;
22201;SDS011;11266;51.522;6.302;2023-05-28T00:38:14;9.55;;;3.10;;
22201;SDS011;11266;51.522;6.302;2023-05-28T00:39:00;5.10;;;2.40;;
22201;SDS011;11266;51.522;6.302;2023-05-28T00:39:49;7.93;;;2.97;;
22201;SDS011;11266;51.522;6.302;2023-05-28T00:40:35;7.03;;;3.05;;
22201;SDS011;11266;51.522;6.302;2023-05-28T00:41:22;8.27;;;3.33;;
22201;SDS011;11266;51.522;6.302;2023-05-28T00:42:08;6.20;;;3.08;;
22201;SDS011;11266;51.522;6.302;2023-05-28T00:42:55;6.75;;;3.00;;
22201;SDS011;11266;51.522;6.302;2023-05-28T00:43:41;7.32;;;3.00;;
22201;SDS011;11266;51.522;6.302;2023-05-28T00:44:27;9.02;;;3.35;;
22201;SDS011;11266;51.522;6.302;2023-05-28T00:45:13;12.98;;;5.07;;
22201;SDS011;11266;51.522;6.302;2023-05-28T00:46:00;6.60;;;2.90;;
22201;SDS011;11266;51.522;6.302;2023-05-28T00:46:47;7.63;;;2.95;;
22201;SDS011;11266;51.522;6.302;2023-05-28T00:47:34;5.80;;;2.78;;
22201;SDS011;11266;51.522;6.302;2023-05-28T00:48:20;5.18;;;2.70;;
22201;SDS011;11266;51.522;6.302;2023-05-28T00:49:06;6.30;;;3.22;;
22201;SDS011;11266;51.522;6.302;2023-05-28T00:49:54;7.28;;;3.13;;
22201;SDS011;11266;51.522;6.302;2023-05-28T00:50:40;5.43;;;2.80;;
22201;SDS011;11266;51.522;6.302;2023-05-28T00:51:28;5.47;;;2.90;;
22201;SDS011;11266;51.522;6.302;2023-05-28T00:52:14;6.13;;;2.78;;
22201;SDS011;11266;51.522;6.302;2023-05-28T00:53:00;5.90;;;3.00;;
22201;SDS011;11266;51.522;6.302;2023-05-28T00:53:46;7.38;;;2.97;;
22201;SDS011;11266;51.522;6.302;2023-05-28T00:54:33;7.45;;;3.38;;
22201;SDS011;11266;51.522;6.302;2023-05-28T00:55:19;7.15;;;2.97;;
22201;SDS011;11266;51.522;6.302;2023-05-28T00:56:05;6.22;;;3.20;;
22201;SDS011;11266;51.522;6.302;2023-05-28T00:56:54;5.82;;;2.60;;
22201;SDS011;11266;51.522;6.302;2023-05-28T00:57:42;6.72;;;3.10;;
22201;SDS011;11266;51.522;6.302;2023-05-28T00:58:30;8.00;;;3.08;;
22201;SDS011;11266;51.522;6.302;2023-05-28T00:59:20;7.10;;;3.30;;
22201;SDS011;11266;51.522;6.302;2023-05-28T01:00:10;6.38;;;3.22;;
22201;SDS011;11266;51.522;6.302;2023-05-28T01:00:56;6.68;;;3.05;;
22201;SDS011;11266;51.522;6.302;2023-05-28T01:01:43;6.30;;;3.28;;
22201;SDS011;11266;51.522;6.302;2023-05-28T01:02:29;6.15;;;2.88;;
22201;SDS011;11266;51.522;6.302;2023-05-28T01:03:15;8.48;;;3.15;;
22201;SDS011;11266;51.522;6.302;2023-05-28T01:04:01;5.47;;;2.72;;
22201;SDS011;11266;51.522;6.302;2023-05-28T01:04:47;11.30;;;3.65;;
22201;SDS011;11266;51.522;6.302;2023-05-28T01:05:33;6.55;;;3.60;;
22201;SDS011;11266;51.522;6.302;2023-05-28T01:06:19;8.75;;;4.00;;
22201;SDS011;11266;51.522;6.302;2023-05-28T01:07:06;7.95;;;3.40;;
22201;SDS011;11266;51.522;6.302;2023-05-28T01:07:52;5.97;;;2.70;;
22201;SDS011;11266;51.522;6.302;2023-05-28T01:08:38;5.78;;;2.85;;
22201;SDS011;11266;51.522;6.302;2023-05-28T01:09:25;6.63;;;2.90;;
22201;SDS011;11266;51.522;6.302;2023-05-28T01:10:12;7.78;;;3.03;;
22201;SDS011;11266;51.522;6.302;2023-05-28T01:10:58;7.47;;;3.25;;
22201;SDS011;11266;51.522;6.302;2023-05-28T01:11:43;5.93;;;2.90;;
22201;SDS011;11266;51.522;6.302;2023-05-28T01:12:32;8.05;;;3.28;;
22201;SDS011;11266;51.522;6.302;2023-05-28T01:13:19;4.90;;;2.40;;
22201;SDS011;11266;51.522;6.302;2023-05-28T01:14:05;4.72;;;2.65;;
22201;SDS011;11266;51.522;6.302;2023-05-28T01:14:52;5.47;;;2.83;;
22201;SDS011;11266;51.522;6.302;2023-05-28T01:15:38;6.63;;;3.15;;
22201;SDS011;11266;51.522;6.302;2023-05-28T01:16:25;5.80;;;2.92;;
22201;SDS011;11266;51.522;6.302;2023-05-28T01:17:12;5.15;;;3.00;;
22201;SDS011;11266;51.522;6.302;2023-05-28T01:18:00;6.15;;;2.70;;
22201;SDS011;11266;51.522;6.302;2023-05-28T01:18:46;4.82;;;2.70;;
22201;SDS011;11266;51.522;6.302;2023-05-28T01:19:33;5.72;;;2.83;;
22201;SDS011;11266;51.522;6.302;2023-05-28T01:20:19;6.53;;;2.70;;
22201;SDS011;11266;51.522;6.302;2023-05-28T01:21:05;5.72;;;2.83;;
22201;SDS011;11266;51.522;6.302;2023-05-28T01:21:52;5.25;;;3.05;;
22201;SDS011;11266;51.522;6.302;2023-05-28T01:22:46;6.25;;;2.90;;
22201;SDS011;11266;51.522;6.302;2023-05-28T01:23:41;5.65;;;2.97;;
22201;SDS011;11266;51.522;6.302;2023-05-28T01:24:31;8.13;;;3.20;;
22201;SDS011;11266;51.522;6.302;2023-05-28T01:25:24;6.22;;;3.28;;
22201;SDS011;11266;51.522;6.302;2023-05-28T01:26:11;6.60;;;3.00;;
22201;SDS011;11266;51.522;6.302;2023-05-28T01:26:58;8.45;;;3.45;;
22201;SDS011;11266;51.522;6.302;2023-05-28T01:27:45;7.47;;;3.17;;
22201;SDS011;11266;51.522;6.302;2023-05-28T01:28:31;7.10;;;3.70;;
22201;SDS011;11266;51.522;6.302;2023-05-28T01:29:17;7.68;;;3.70;;
22201;SDS011;11266;51.522;6.302;2023-05-28T01:30:04;6.28;;;3.22;;
22201;SDS011;11266;51.522;6.302;2023-05-28T01:30:52;8.00;;;3.28;;
22201;SDS011;11266;51.522;6.302;2023-05-28T01:31:38;6.60;;;3.10;;
22201;SDS011;11266;51.522;6.302;2023-05-28T01:32:24;11.25;;;3.80;;
22201;SDS011;11266;51.522;6.302;2023-05-28T01:33:10;6.00;;;3.15;;
22201;SDS011;11266;51.522;6.302;2023-05-28T01:33:56;5.45;;;2.78;;
22201;SDS011;11266;51.522;6.302;2023-05-28T01:34:42;7.25;;;3.03;;
22201;SDS011;11266;51.522;6.302;2023-05-28T01:35:27;6.95;;;3.22;;
22201;SDS011;11266;51.522;6.302;2023-05-28T01:36:21;7.43;;;2.97;;
22201;SDS011;11266;51.522;6.302;2023-05-28T01:37:11;6.32;;;3.28;;
22201;SDS011;11266;51.522;6.302;2023-05-28T01:38:01;7.78;;;3.60;;
22201;SDS011;11266;51.522;6.302;2023-05-28T01:38:49;6.47;;;3.05;;
22201;SDS011;11266;51.522;6.302;2023-05-28T01:39:41;11.80;;;3.40;;
22201;SDS011;11266;51.522;6.302;2023-05-28T01:40:29;8.38;;;3.70;;
22201;SDS011;11266;51.522;6.302;2023-05-28T01:41:16;8.68;;;3.25;;
22201;SDS011;11266;51.522;6.302;2023-05-28T01:42:03;7.68;;;3.40;;
22201;SDS011;11266;51.522;6.302;2023-05-28T01:42:50;7.53;;;2.85;;
22201;SDS011;11266;51.522;6.302;2023-05-28T01:43:40;7.07;;;3.35;;
22201;SDS011;11266;51.522;6.302;2023-05-28T01:44:27;7.57;;;3.58;;
22201;SDS011;11266;51.522;6.302;2023-05-28T01:45:15;10.48;;;3.22;;
22201;SDS011;11266;51.522;6.302;2023-05-28T01:46:02;6.97;;;3.70;;
22201;SDS011;11266;51.522;6.302;2023-05-28T01:46:48;9.65;;;3.58;;
22201;SDS011;11266;51.522;6.302;2023-05-28T01:47:34;6.20;;;3.42;;
22201;SDS011;11266;51.522;6.302;2023-05-28T01:48:21;8.00;;;3.38;;
22201;SDS011;11266;51.522;6.302;2023-05-28T01:49:08;5.30;;;2.80;;
22201;SDS011;11266;51.522;6.302;2023-05-28T01:49:55;9.00;;;3.85;;
22201;SDS011;11266;51.522;6.302;2023-05-28T01:50:41;7.53;;;3.28;;
22201;SDS011;11266;51.522;6.302;2023-05-28T01:51:27;6.97;;;3.10;;
22201;SDS011;11266;51.522;6.302;2023-05-28T01:52:13;9.35;;;3.20;;
22201;SDS011;11266;51.522;6.302;2023-05-28T01:53:00;6.43;;;3.28;;
22201;SDS011;11266;51.522;6.302;2023-05-28T01:53:45;5.75;;;3.00;;
22201;SDS011;11266;51.522;6.302;2023-05-28T01:54:31;6.43;;;3.25;;
22201;SDS011;11266;51.522;6.302;2023-05-28T01:55:17;6.75;;;3.20;;
22201;SDS011;11266;51.522;6.302;2023-05-28T01:56:03;6.07;;;3.25;;
22201;SDS011;11266;51.522;6.302;2023-05-28T01:56:49;6.68;;;3.50;;
22201;SDS011;11266;51.522;6.302;2023-05-28T01:57:36;6.97;;;3.13;;
22201;SDS011;11266;51.522;6.302;2023-05-28T01:58:23;6.15;;;3.10;;
22201;SDS011;11266;51.522;6.302;2023-05-28T01:59:09;5.47;;;2.72;;
22201;SDS011;11266;51.522;6.302;2023-05-28T01:59:55;6.15;;;3.08;;
22201;SDS011;11266;51.522;6.302;2023-05-28T02:00:46;4.82;;;2.65;;
22201;SDS011;11266;51.522;6.302;2023-05-28T02:01:40;5.95;;;3.20;;
22201;SDS011;11266;51.522;6.302;2023-05-28T02:02:26;7.13;;;2.90;;
22201;SDS011;11266;51.522;6.302;2023-05-28T02:03:12;7.68;;;3.75;;
22201;SDS011;11266;51.522;6.302;2023-05-28T02:03:58;5.30;;;3.00;;
22201;SDS011;11266;51.522;6.302;2023-05-28T02:04:44;6.85;;;3.25;;
22201;SDS011;11266;51.522;6.302;2023-05-28T02:05:30;6.93;;;3.67;;
22201;SDS011;11266;51.522;6.302;2023-05-28T02:06:16;8.13;;;2.92;;
22201;SDS011;11266;51.522;6.302;2023-05-28T02:07:01;5.50;;;2.78;;
22201;SDS011;11266;51.522;6.302;2023-05-28T02:07:47;5.95;;;3.22;;
22201;SDS011;11266;51.522;6.302;2023-05-28T02:08:33;4.90;;;2.85;;
22201;SDS011;11266;51.522;6.302;2023-05-28T02:09:19;6.97;;;3.42;;
22201;SDS011;11266;51.522;6.302;2023-05-28T02:10:05;8.55;;;3.53;;
22201;SDS011;11266;51.522;6.302;2023-05-28T02:10:52;8.90;;;4.00;;
22201;SDS011;11266;51.522;6.302;2023-05-28T02:11:37;8.55;;;3.70;;
22201;SDS011;11266;51.522;6.302;2023-05-28T02:12:23;6.50;;;3.50;;
22201;SDS011;11266;51.522;6.302;2023-05-28T02:13:09;8.77;;;3.70;;
22201;SDS011;11266;51.522;6.302;2023-05-28T02:13:55;7.75;;;3.65;;
22201;SDS011;11266;51.522;6.302;2023-05-28T02:14:41;7.68;;;3.65;;
22201;SDS011;11266;51.522;6.302;2023-05-28T02:15:27;5.18;;;2.95;;
22201;SDS011;11266;51.522;6.302;2023-05-28T02:16:13;7.82;;;3.63;;
22201;SDS011;11266;51.522;6.302;2023-05-28T02:17:02;6.28;;;3.28;;
22201;SDS011;11266;51.522;6.302;2023-05-28T02:17:48;9.45;;;4.05;;
22201;SDS011;11266;51.522;6.302;2023-05-28T02:18:35;6.43;;;3.33;;
22201;SDS011;11266;51.522;6.302;2023-05-28T02:19:22;9.23;;;3.58;;
22201;SDS011;11266;51.522;6.302;2023-05-28T02:20:09;8.80;;;3.88;;
22201;SDS011;11266;51.522;6.302;2023-05-28T02:20:57;7.82;;;3.28;;
22201;SDS011;11266;51.522;6.302;2023-05-28T02:21:43;6.07;;;3.42;;
22201;SDS011;11266;51.522;6.302;2023-05-28T02:22:28;9.55;;;3.92;;
22201;SDS011;11266;51.522;6.302;2023-05-28T02:23:14;7.22;;;3.55;;
22201;SDS011;11266;51.522;6.302;2023-05-28T02:24:00;7.72;;;3.50;;
22201;SDS011;11266;51.522;6.302;2023-05-28T02:24:46;6.70;;;3.72;;
22201;SDS011;11266;51.522;6.302;2023-05-28T02:25:32;9.43;;;3.97;;
22201;SDS011;11266;51.522;6.302;2023-05-28T02:26:17;9.25;;;3.80;;
22201;SDS011;11266;51.522;6.302;2023-05-28T02:27:03;8.88;;;3.55;;
22201;SDS011;11266;51.522;6.302;2023-05-28T02:27:50;9.18;;;4.15;;
22201;SDS011;11266;51.522;6.302;2023-05-28T02:28:36;8.57;;;4.22;;
22201;SDS011;11266;51.522;6.302;2023-05-28T02:29:22;6.05;;;3.08;;
22201;SDS011;11266;51.522;6.302;2023-05-28T02:30:08;8.10;;;3.50;;
22201;SDS011;11266;51.522;6.302;2023-05-28T02:30:55;8.43;;;3.88;;
22201;SDS011;11266;51.522;6.302;2023-05-28T02:31:41;8.63;;;3.83;;
22201;SDS011;11266;51.522;6.302;2023-05-28T02:32:27;7.70;;;4.05;;
22201;SDS011;11266;51.522;6.302;2023-05-28T02:33:13;8.43;;;3.67;;
22201;SDS011;11266;51.522;6.302;2023-05-28T02:33:58;6.93;;;3.53;;
22201;SDS011;11266;51.522;6.302;2023-05-28T02:34:44;6.43;;;3.25;;
22201;SDS011;11266;51.522;6.302;2023-05-28T02:35:30;7.63;;;3.90;;
22201;SDS011;11266;51.522;6.302;2023-05-28T02:36:17;8.13;;;3.97;;
22201;SDS011;11266;51.522;6.302;2023-05-28T02:37:02;9.52;;;4.40;;
22201;SDS011;11266;51.522;6.302;2023-05-28T02:37:49;8.68;;;3.50;;
22201;SDS011;11266;51.522;6.302;2023-05-28T02:38:35;7.57;;;3.63;;
22201;SDS011;11266;51.522;6.302;2023-05-28T02:39:21;10.20;;;3.50;;
22201;SDS011;11266;51.522;6.302;2023-05-28T02:40:08;7.45;;;3.17;;
22201;SDS011;11266;51.522;6.302;2023-05-28T02:40:54;6.68;;;3.35;;
22201;SDS011;11266;51.522;6.302;2023-05-28T02:41:40;9.43;;;3.15;;
22201;SDS011;11266;51.522;6.302;2023-05-28T02:42:26;7.78;;;3.72;;
22201;SDS011;11266;51.522;6.302;2023-05-28T02:43:12;7.32;;;3.88;;
22201;SDS011;11266;51.522;6.302;2023-05-28T02:43:57;6.07;;;3.13;;
22201;SDS011;11266;51.522;6.302;2023-05-28T02:44:43;7.10;;;3.70;;
22201;SDS011;11266;51.522;6.302;2023-05-28T02:45:29;6.97;;;3.47;;
22201;SDS011;11266;51.522;6.302;2023-05-28T02:46:15;5.28;;;3.10;;
22201;SDS011;11266;51.522;6.302;2023-05-28T02:47:00;5.85;;;3.13;;
22201;SDS011;11266;51.522;6.302;2023-05-28T02:47:46;7.65;;;3.60;;
22201;SDS011;11266;51.522;6.302;2023-05-28T02:48:32;6.30;;;3.20;;
22201;SDS011;11266;51.522;6.302;2023-05-28T02:49:19;5.30;;;3.28;;
22201;SDS011;11266;51.522;6.302;2023-05-28T02:50:05;6.88;;;3.30;;
22201;SDS011;11266;51.522;6.302;2023-05-28T02:50:51;6.95;;;3.35;;
22201;SDS011;11266;51.522;6.302;2023-05-28T02:51:37;6.38;;;3.50;;
22201;SDS011;11266;51.522;6.302;2023-05-28T02:52:22;8.05;;;3.60;;
22201;SDS011;11266;51.522;6.302;2023-05-28T02:53:08;6.00;;;3.35;;
22201;SDS011;11266;51.522;6.302;2023-05-28T02:53:54;6.25;;;3.10;;
22201;SDS011;11266;51.522;6.302;2023-05-28T02:54:40;6.85;;;3.50;;
22201;SDS011;11266;51.522;6.302;2023-05-28T02:55:26;6.43;;;3.10;;
22201;SDS011;11266;51.522;6.302;2023-05-28T02:56:11;7.60;;;3.47;;
22201;SDS011;11266;51.522;6.302;2023-05-28T02:56:57;8.15;;;3.50;;
22201;SDS011;11266;51.522;6.302;2023-05-28T02:57:43;8.55;;;3.70;;
22201;SDS011;11266;51.522;6.302;2023-05-28T02:58:29;6.80;;;3.63;;
22201;SDS011;11266;51.522;6.302;2023-05-28T02:59:15;7.53;;;3.45;;
22201;SDS011;11266;51.522;6.302;2023-05-28T03:00:01;5.45;;;3.50;;
22201;SDS011;11266;51.522;6.302;2023-05-28T03:00:47;6.82;;;3.78;;
22201;SDS011;11266;51.522;6.302;2023-05-28T03:01:32;6.90;;;3.95;;
22201;SDS011;11266;51.522;6.302;2023-05-28T03:02:18;7.85;;;3.75;;
22201;SDS011;11266;51.522;6.302;2023-05-28T03:03:04;8.40;;;3.85;;
22201;SDS011;11266;51.522;6.302;2023-05-28T03:03:50;8.15;;;3.53;;
22201;SDS011;11266;51.522;6.302;2023-05-28T03:04:35;7.75;;;3.70;;
22201;SDS011;11266;51.522;6.302;2023-05-28T03:05:22;7.18;;;3.45;;
22201;SDS011;11266;51.522;6.302;2023-05-28T03:06:08;8.57;;;3.80;;
22201;SDS011;11266;51.522;6.302;2023-05-28T03:06:53;8.27;;;4.05;;
22201;SDS011;11266;51.522;6.302;2023-05-28T03:07:40;10.43;;;3.97;;
22201;SDS011;11266;51.522;6.302;2023-05-28T03:08:26;7.38;;;3.70;;
22201;SDS011;11266;51.522;6.302;2023-05-28T03:09:11;6.63;;;3.58;;
22201;SDS011;11266;51.522;6.302;2023-05-28T03:09:58;9.60;;;3.63;;
22201;SDS011;11266;51.522;6.302;2023-05-28T03:10:44;6.47;;;3.63;;
22201;SDS011;11266;51.522;6.302;2023-05-28T03:11:29;8.68;;;4.35;;
22201;SDS011;11266;51.522;6.302;2023-05-28T03:12:15;11.73;;;4.05;;
22201;SDS011;11266;51.522;6.302;2023-05-28T03:13:01;7.18;;;3.95;;
22201;SDS011;11266;51.522;6.302;2023-05-28T03:13:47;6.82;;;3.63;;
22201;SDS011;11266;51.522;6.302;2023-05-28T03:14:32;7.35;;;3.67;;
22201;SDS011;11266;51.522;6.302;2023-05-28T03:15:18;7.50;;;3.65;;
22201;SDS011;11266;51.522;6.302;2023-05-28T03:16:04;6.38;;;3.40;;
22201;SDS011;11266;51.522;6.302;2023-05-28T03:16:50;5.97;;;3.25;;
22201;SDS011;11266;51.522;6.302;2023-05-28T03:17:36;7.50;;;3.63;;
22201;SDS011;11266;51.522;6.302;2023-05-28T03:18:22;8.23;;;3.55;;
22201;SDS011;11266;51.522;6.302;2023-05-28T03:19:08;7.05;;;3.50;;
22201;SDS011;11266;51.522;6.302;2023-05-28T03:19:54;6.65;;;3.33;;
22201;SDS011;11266;51.522;6.302;2023-05-28T03:20:40;6.57;;;3.15;;
22201;SDS011;11266;51.522;6.302;2023-05-28T03:21:26;8.38;;;3.92;;
22201;SDS011;11266;51.522;6.302;2023-05-28T03:22:12;8.35;;;4.15;;
22201;SDS011;11266;51.522;6.302;2023-05-28T03:22:57;7.90;;;3.97;;
22201;SDS011;11266;51.522;6.302;2023-05-28T03:23:43;7.78;;;3.75;;
22201;SDS011;11266;51.522;6.302;2023-05-28T03:24:29;9.02;;;3.85;;
22201;SDS011;11266;51.522;6.302;2023-05-28T03:25:15;8.95;;;4.00;;
22201;SDS011;11266;51.522;6.302;2023-05-28T03:26:01;10.10;;;4.00;;
22201;SDS011;11266;51.522;6.302;2023-05-28T03:26:47;7.97;;;3.97;;
22201;SDS011;11266;51.522;6.302;2023-05-28T03:27:33;8.82;;;4.22;;
22201;SDS011;11266;51.522;6.302;2023-05-28T03:28:18;8.65;;;4.18;;
22201;SDS011;11266;51.522;6.302;2023-05-28T03:29:05;7.25;;;3.90;;
22201;SDS011;11266;51.522;6.302;2023-05-28T03:29:51;7.00;;;3.60;;
22201;SDS011;11266;51.522;6.302;2023-05-28T03:30:37;6.40;;;3.45;;
22201;SDS011;11266;51.522;6.302;2023-05-28T03:31:25;6.53;;;3.92;;
22201;SDS011;11266;51.522;6.302;2023-05-28T03:32:13;10.13;;;4.18;;
22201;SDS011;11266;51.522;6.302;2023-05-28T03:32:59;8.18;;;3.92;;
22201;SDS011;11266;51.522;6.302;2023-05-28T03:33:45;7.60;;;3.83;;
22201;SDS011;11266;51.522;6.302;2023-05-28T03:34:31;8.25;;;3.90;;
22201;SDS011;11266;51.522;6.302;2023-05-28T03:35:18;9.20;;;4.10;;
22201;SDS011;11266;51.522;6.302;2023-05-28T03:36:04;8.98;;;3.63;;
22201;SDS011;11266;51.522;6.302;2023-05-28T03:36:52;6.47;;;3.25;;
22201;SDS011;11266;51.522;6.302;2023-05-28T03:37:37;8.43;;;3.80;;
22201;SDS011;11266;51.522;6.302;2023-05-28T03:38:23;7.85;;;3.83;;
22201;SDS011;11266;51.522;6.302;2023-05-28T03:39:09;7.40;;;3.65;;
22201;SDS011;11266;51.522;6.302;2023-05-28T03:39:56;7.90;;;3.58;;
22201;SDS011;11266;51.522;6.302;2023-05-28T03:40:41;8.07;;;3.63;;
22201;SDS011;11266;51.522;6.302;2023-05-28T03:41:27;11.27;;;3.92;;
22201;SDS011;11266;51.522;6.302;2023-05-28T03:42:13;6.90;;;3.95;;
22201;SDS011;11266;51.522;6.302;2023-05-28T03:42:59;7.05;;;3.50;;
22201;SDS011;11266;51.522;6.302;2023-05-28T03:43:45;8.10;;;3.45;;
22201;SDS011;11266;51.522;6.302;2023-05-28T03:44:31;8.10;;;4.13;;
22201;SDS011;11266;51.522;6.302;2023-05-28T03:45:17;8.85;;;4.18;;
22201;SDS011;11266;51.522;6.302;2023-05-28T03:46:03;9.15;;;4.00;;
22201;SDS011;11266;51.522;6.302;2023-05-28T03:46:48;14.75;;;4.63;;
22201;SDS011;11266;51.522;6.302;2023-05-28T03:47:34;11.00;;;4.20;;
22201;SDS011;11266;51.522;6.302;2023-05-28T03:48:20;7.07;;;3.50;;
22201;SDS011;11266;51.522;6.302;2023-05-28T03:49:07;10.13;;;3.97;;
22201;SDS011;11266;51.522;6.302;2023-05-28T03:49:52;7.03;;;3.63;;
22201;SDS011;11266;51.522;6.302;2023-05-28T03:50:38;8.40;;;4.00;;
22201;SDS011;11266;51.522;6.302;2023-05-28T03:51:24;8.45;;;4.35;;
22201;SDS011;11266;51.522;6.302;2023-05-28T03:52:11;8.65;;;3.85;;
22201;SDS011;11266;51.522;6.302;2023-05-28T03:52:57;7.03;;;4.00;;
22201;SDS011;11266;51.522;6.302;2023-05-28T03:53:42;9.07;;;3.85;;
22201;SDS011;11266;51.522;6.302;2023-05-28T03:54:28;9.45;;;4.60;;
22201;SDS011;11266;51.522;6.302;2023-05-28T03:55:14;11.40;;;4.60;;
22201;SDS011;11266;51.522;6.302;2023-05-28T03:56:00;9.32;;;4.03;;
22201;SDS011;11266;51.522;6.302;2023-05-28T03:56:46;9.75;;;4.10;;
22201;SDS011;11266;51.522;6.302;2023-05-28T03:57:32;12.15;;;4.80;;
22201;SDS011;11266;51.522;6.302;2023-05-28T03:58:18;8.90;;;4.07;;
22201;SDS011;11266;51.522;6.302;2023-05-28T03:59:03;7.95;;;3.95;;
22201;SDS011;11266;51.522;6.302;2023-05-28T03:59:49;9.18;;;3.92;;
22201;SDS011;11266;51.522;6.302;2023-05-28T04:00:35;7.47;;;4.07;;
22201;SDS011;11266;51.522;6.302;2023-05-28T04:01:21;9.65;;;4.85;;
22201;SDS011;11266;51.522;6.302;2023-05-28T04:02:07;7.20;;;3.70;;
22201;SDS011;11266;51.522;6.302;2023-05-28T04:02:52;8.25;;;4.05;;
22201;SDS011;11266;51.522;6.302;2023-05-28T04:03:38;6.72;;;3.60;;
22201;SDS011;11266;51.522;6.302;2023-05-28T04:04:24;8.05;;;3.95;;
22201;SDS011;11266;51.522;6.302;2023-05-28T04:05:10;9.02;;;3.60;;
22201;SDS011;11266;51.522;6.302;2023-05-28T04:05:55;8.45;;;4.25;;
22201;SDS011;11266;51.522;6.302;2023-05-28T04:06:41;12.00;;;5.07;;
22201;SDS011;11266;51.522;6.302;2023-05-28T04:07:27;9.27;;;3.75;;
22201;SDS011;11266;51.522;6.302;2023-05-28T04:08:13;8.15;;;4.00;;
22201;SDS011;11266;51.522;6.302;2023-05-28T04:08:59;7.65;;;3.78;;
22201;SDS011;11266;51.522;6.302;2023-05-28T04:09:44;8.77;;;4.35;;
22201;SDS011;11266;51.522;6.302;2023-05-28T04:10:30;6.82;;;3.92;;
22201;SDS011;11266;51.522;6.302;2023-05-28T04:11:16;7.95;;;3.88;;
22201;SDS011;11266;51.522;6.302;2023-05-28T04:12:02;7.70;;;4.50;;
22201;SDS011;11266;51.522;6.302;2023-05-28T04:12:48;7.72;;;3.72;;
22201;SDS011;11266;51.522;6.302;2023-05-28T04:13:33;7.80;;;3.42;;
22201;SDS011;11266;51.522;6.302;2023-05-28T04:14:19;8.93;;;4.10;;
22201;SDS011;11266;51.522;6.302;2023-05-28T04:15:05;8.95;;;4.30;;
22201;SDS011;11266;51.522;6.302;2023-05-28T04:15:52;8.80;;;3.75;;
22201;SDS011;11266;51.522;6.302;2023-05-28T04:16:38;9.38;;;3.70;;
22201;SDS011;11266;51.522;6.302;2023-05-28T04:17:23;9.23;;;3.80;;
22201;SDS011;11266;51.522;6.302;2023-05-28T04:18:09;10.07;;;3.88;;
22201;SDS011;11266;51.522;6.302;2023-05-28T04:18:56;6.38;;;3.88;;
22201;SDS011;11266;51.522;6.302;2023-05-28T04:19:42;7.88;;;3.78;;
22201;SDS011;11266;51.522;6.302;2023-05-28T04:20:28;7.18;;;3.97;;
22201;SDS011;11266;51.522;6.302;2023-05-28T04:21:14;7.43;;;3.58;;
22201;SDS011;11266;51.522;6.302;2023-05-28T04:22:00;8.93;;;3.90;;
22201;SDS011;11266;51.522;6.302;2023-05-28T04:22:46;7.70;;;3.67;;
22201;SDS011;11266;51.522;6.302;2023-05-28T04:23:32;8.07;;;3.75;;
22201;SDS011;11266;51.522;6.302;2023-05-28T04:24:18;7.90;;;4.13;;
22201;SDS011;11266;51.522;6.302;2023-05-28T04:25:04;7.20;;;3.92;;
22201;SDS011;11266;51.522;6.302;2023-05-28T04:25:50;9.98;;;4.43;;
22201;SDS011;11266;51.522;6.302;2023-05-28T04:26:38;8.35;;;4.38;;
22201;SDS011;11266;51.522;6.302;2023-05-28T04:27:24;7.35;;;3.85;;
22201;SDS011;11266;51.522;6.302;2023-05-28T04:28:11;10.48;;;4.72;;
22201;SDS011;11266;51.522;6.302;2023-05-28T04:28:57;7.25;;;3.85;;
22201;SDS011;11266;51.522;6.302;2023-05-28T04:29:44;8.98;;;4.43;;
22201;SDS011;11266;51.522;6.302;2023-05-28T04:30:31;8.15;;;4.13;;
22201;SDS011;11266;51.522;6.302;2023-05-28T04:31:17;7.50;;;4.30;;
22201;SDS011;11266;51.522;6.302;2023-05-28T04:32:02;9.27;;;4.50;;
22201;SDS011;11266;51.522;6.302;2023-05-28T04:32:50;8.38;;;3.88;;
22201;SDS011;11266;51.522;6.302;2023-05-28T04:33:39;7.72;;;3.53;;
22201;SDS011;11266;51.522;6.302;2023-05-28T04:34:25;6.28;;;3.72;;
22201;SDS011;11266;51.522;6.302;2023-05-28T04:35:11;10.60;;;4.40;;
22201;SDS011;11266;51.522;6.302;2023-05-28T04:35:57;6.35;;;3.33;;
22201;SDS011;11266;51.522;6.302;2023-05-28T04:36:44;9.30;;;3.70;;
22201;SDS011;11266;51.522;6.302;2023-05-28T04:37:29;6.55;;;3.42;;
22201;SDS011;11266;51.522;6.302;2023-05-28T04:38:18;6.25;;;3.58;;
22201;SDS011;11266;51.522;6.302;2023-05-28T04:39:04;9.10;;;3.72;;
22201;SDS011;11266;51.522;6.302;2023-05-28T04:39:49;8.48;;;3.60;;